sensor_id;sensor_type;location;lat;lon;timestamp;pressure;altitude;pressure_sealevel;temperature;humidity
49397;BME280;35615;41.410;2.194;2023-03-03T00:01:42;101686.44;;;13.57;32.57
49397;BME280;35615;41.410;2.194;2023-03-03T00:04:18;101676.22;;;13.61;32.47
49397;BME280;35615;41.410;2.194;2023-03-03T00:06:56;101676.88;;;13.56;32.45
49397;BME280;35615;41.410;2.194;2023-03-03T00:09:31;101681.03;;;13.52;32.35
49397;BME280;35615;41.410;2.194;2023-03-03T00:12:25;101681.34;;;13.39;32.88
49397;BME280;35615;41.410;2.194;2023-03-03T00:14:55;101670.53;;;13.49;32.67
49397;BME280;35615;41.410;2.194;2023-03-03T00:17:29;101672.13;;;13.46;32.73
49397;BME280;35615;41.410;2.194;2023-03-03T00:19:58;101657.94;;;13.37;33.04
49397;BME280;35615;41.410;2.194;2023-03-03T00:22:36;101666.66;;;13.40;32.72
49397;BME280;35615;41.410;2.194;2023-03-03T00:25:34;101663.84;;;13.33;32.87
49397;BME280;35615;41.410;2.194;2023-03-03T00:28:30;101663.25;;;13.41;32.49
49397;BME280;35615;41.410;2.194;2023-03-03T00:31:14;101658.66;;;13.33;33.33
49397;BME280;35615;41.410;2.194;2023-03-03T00:33:55;101663.50;;;13.26;32.82
49397;BME280;35615;41.410;2.194;2023-03-03T00:36:39;101657.38;;;13.24;33.53
49397;BME280;35615;41.410;2.194;2023-03-03T00:39:38;101661.47;;;13.19;32.83
49397;BME280;35615;41.410;2.194;2023-03-03T00:42:19;101656.28;;;13.19;32.86
49397;BME280;35615;41.410;2.194;2023-03-03T00:44:58;101659.59;;;13.16;33.42
49397;BME280;35615;41.410;2.194;2023-03-03T00:47:42;101660.44;;;13.15;33.47
49397;BME280;35615;41.410;2.194;2023-03-03T00:50:53;101657.06;;;13.18;33.86
49397;BME280;35615;41.410;2.194;2023-03-03T00:53:39;101658.88;;;13.19;33.44
49397;BME280;35615;41.410;2.194;2023-03-03T00:56:08;101659.59;;;13.16;33.58
49397;BME280;35615;41.410;2.194;2023-03-03T00:58:40;101657.59;;;13.09;34.00
49397;BME280;35615;41.410;2.194;2023-03-03T01:01:10;101656.16;;;12.96;33.80
49397;BME280;35615;41.410;2.194;2023-03-03T01:03:44;101657.88;;;12.96;33.35
49397;BME280;35615;41.410;2.194;2023-03-03T01:06:12;101649.78;;;12.88;33.71
49397;BME280;35615;41.410;2.194;2023-03-03T01:08:40;101645.13;;;13.00;33.40
49397;BME280;35615;41.410;2.194;2023-03-03T01:11:23;101649.19;;;12.95;34.01
49397;BME280;35615;41.410;2.194;2023-03-03T01:13:53;101637.13;;;12.96;33.69
49397;BME280;35615;41.410;2.194;2023-03-03T01:16:21;101641.63;;;13.00;33.35
49397;BME280;35615;41.410;2.194;2023-03-03T01:18:49;101635.56;;;12.99;33.67
49397;BME280;35615;41.410;2.194;2023-03-03T01:21:20;101632.81;;;12.96;33.33
49397;BME280;35615;41.410;2.194;2023-03-03T01:23:52;101637.13;;;12.96;33.71
49397;BME280;35615;41.410;2.194;2023-03-03T01:26:21;101638.88;;;12.97;33.56
49397;BME280;35615;41.410;2.194;2023-03-03T01:28:48;101642.06;;;12.90;34.19
49397;BME280;35615;41.410;2.194;2023-03-03T01:31:16;101645.50;;;12.69;34.54
49397;BME280;35615;41.410;2.194;2023-03-03T01:33:44;101643.25;;;12.77;34.65
49397;BME280;35615;41.410;2.194;2023-03-03T01:36:11;101646.13;;;12.64;35.67
49397;BME280;35615;41.410;2.194;2023-03-03T01:38:39;101640.38;;;12.71;35.13
49397;BME280;35615;41.410;2.194;2023-03-03T01:41:06;101638.47;;;12.67;35.41
49397;BME280;35615;41.410;2.194;2023-03-03T01:43:33;101642.72;;;12.65;35.56
49397;BME280;35615;41.410;2.194;2023-03-03T01:48:35;101635.41;;;12.56;35.64
49397;BME280;35615;41.410;2.194;2023-03-03T01:53:41;101640.59;;;12.56;35.87
49397;BME280;35615;41.410;2.194;2023-03-03T01:56:09;101627.91;;;12.43;36.00
49397;BME280;35615;41.410;2.194;2023-03-03T01:58:43;101627.81;;;12.41;36.58
49397;BME280;35615;41.410;2.194;2023-03-03T02:01:15;101632.88;;;12.38;36.29
49397;BME280;35615;41.410;2.194;2023-03-03T02:03:45;101624.03;;;12.33;36.66
49397;BME280;35615;41.410;2.194;2023-03-03T02:06:15;101627.91;;;12.24;36.96
49397;BME280;35615;41.410;2.194;2023-03-03T02:11:30;101630.22;;;12.37;36.27
49397;BME280;35615;41.410;2.194;2023-03-03T02:13:58;101620.75;;;12.37;36.39
49397;BME280;35615;41.410;2.194;2023-03-03T02:16:25;101621.53;;;12.17;36.45
49397;BME280;35615;41.410;2.194;2023-03-03T02:18:53;101615.91;;;12.26;36.17
49397;BME280;35615;41.410;2.194;2023-03-03T02:21:23;101610.59;;;12.23;37.04
49397;BME280;35615;41.410;2.194;2023-03-03T02:24:09;101616.59;;;12.21;36.37
49397;BME280;35615;41.410;2.194;2023-03-03T02:26:40;101607.97;;;12.03;36.51
49397;BME280;35615;41.410;2.194;2023-03-03T02:29:11;101606.63;;;12.11;36.20
49397;BME280;35615;41.410;2.194;2023-03-03T02:31:40;101603.97;;;12.10;35.63
49397;BME280;35615;41.410;2.194;2023-03-03T02:34:09;101605.94;;;12.15;35.96
49397;BME280;35615;41.410;2.194;2023-03-03T02:36:39;101610.75;;;12.08;36.04
49397;BME280;35615;41.410;2.194;2023-03-03T02:39:17;101603.25;;;11.95;36.29
49397;BME280;35615;41.410;2.194;2023-03-03T02:41:57;101598.56;;;12.05;36.18
49397;BME280;35615;41.410;2.194;2023-03-03T02:44:35;101606.34;;;12.05;36.02
49397;BME280;35615;41.410;2.194;2023-03-03T02:47:03;101608.59;;;12.17;35.83
49397;BME280;35615;41.410;2.194;2023-03-03T02:49:33;101605.41;;;12.23;35.91
49397;BME280;35615;41.410;2.194;2023-03-03T02:52:04;101608.47;;;12.14;36.22
49397;BME280;35615;41.410;2.194;2023-03-03T02:54:33;101608.09;;;12.06;36.49
49397;BME280;35615;41.410;2.194;2023-03-03T02:57:02;101607.59;;;12.13;35.99
49397;BME280;35615;41.410;2.194;2023-03-03T03:02:39;101594.97;;;12.02;36.30
49397;BME280;35615;41.410;2.194;2023-03-03T03:05:14;101592.97;;;11.96;36.94
49397;BME280;35615;41.410;2.194;2023-03-03T03:07:45;101601.28;;;11.89;37.08
49397;BME280;35615;41.410;2.194;2023-03-03T03:10:18;101596.84;;;11.86;37.52
49397;BME280;35615;41.410;2.194;2023-03-03T03:13:25;101594.28;;;11.86;37.36
49397;BME280;35615;41.410;2.194;2023-03-03T03:16:13;101598.34;;;11.81;37.87
49397;BME280;35615;41.410;2.194;2023-03-03T03:18:41;101594.94;;;11.82;37.64
49397;BME280;35615;41.410;2.194;2023-03-03T03:21:11;101602.56;;;11.79;38.05
49397;BME280;35615;41.410;2.194;2023-03-03T03:23:44;101596.63;;;11.82;37.89
49397;BME280;35615;41.410;2.194;2023-03-03T03:26:17;101598.47;;;11.84;37.70
49397;BME280;35615;41.410;2.194;2023-03-03T03:28:53;101598.34;;;11.81;37.56
49397;BME280;35615;41.410;2.194;2023-03-03T03:31:29;101599.97;;;11.79;37.03
49397;BME280;35615;41.410;2.194;2023-03-03T03:34:01;101602.63;;;11.81;37.54
49397;BME280;35615;41.410;2.194;2023-03-03T03:36:36;101594.69;;;11.78;37.68
49397;BME280;35615;41.410;2.194;2023-03-03T03:39:06;101592.97;;;11.78;36.95
49397;BME280;35615;41.410;2.194;2023-03-03T03:41:44;101583.91;;;11.69;36.94
49397;BME280;35615;41.410;2.194;2023-03-03T03:44:16;101583.75;;;11.66;37.24
49397;BME280;35615;41.410;2.194;2023-03-03T03:46:51;101588.94;;;11.48;37.21
49397;BME280;35615;41.410;2.194;2023-03-03T03:49:22;101583.59;;;11.62;36.80
49397;BME280;35615;41.410;2.194;2023-03-03T03:52:02;101583.84;;;11.67;36.62
49397;BME280;35615;41.410;2.194;2023-03-03T03:54:35;101588.00;;;11.46;36.75
49397;BME280;35615;41.410;2.194;2023-03-03T03:57:10;101578.28;;;11.42;36.76
49397;BME280;35615;41.410;2.194;2023-03-03T04:02:45;101573.13;;;11.24;36.47
49397;BME280;35615;41.410;2.194;2023-03-03T04:05:14;101575.00;;;11.44;36.58
49397;BME280;35615;41.410;2.194;2023-03-03T04:07:43;101572.41;;;11.44;37.19
49397;BME280;35615;41.410;2.194;2023-03-03T04:10:15;101570.97;;;11.51;36.31
49397;BME280;35615;41.410;2.194;2023-03-03T04:12:44;101571.78;;;11.50;36.38
49397;BME280;35615;41.410;2.194;2023-03-03T04:15:13;101573.50;;;11.49;36.67
49397;BME280;35615;41.410;2.194;2023-03-03T04:17:42;101576.75;;;11.45;36.80
49397;BME280;35615;41.410;2.194;2023-03-03T04:20:12;101570.16;;;11.52;36.73
49397;BME280;35615;41.410;2.194;2023-03-03T04:22:45;101572.59;;;11.49;37.20
49397;BME280;35615;41.410;2.194;2023-03-03T04:25:15;101578.72;;;11.51;36.88
49397;BME280;35615;41.410;2.194;2023-03-03T04:27:44;101579.16;;;11.60;37.19
49397;BME280;35615;41.410;2.194;2023-03-03T04:30:14;101583.09;;;11.52;37.27
49397;BME280;35615;41.410;2.194;2023-03-03T04:32:45;101584.28;;;11.58;36.99
49397;BME280;35615;41.410;2.194;2023-03-03T04:35:17;101591.41;;;11.45;37.83
49397;BME280;35615;41.410;2.194;2023-03-03T04:37:45;101586.06;;;11.42;37.59
49397;BME280;35615;41.410;2.194;2023-03-03T04:40:12;101587.41;;;11.33;38.30
49397;BME280;35615;41.410;2.194;2023-03-03T04:42:47;101591.53;;;11.48;38.02
49397;BME280;35615;41.410;2.194;2023-03-03T04:45:15;101590.13;;;11.37;37.82
49397;BME280;35615;41.410;2.194;2023-03-03T04:47:46;101587.75;;;11.41;37.91
49397;BME280;35615;41.410;2.194;2023-03-03T04:50:13;101583.56;;;11.25;38.54
49397;BME280;35615;41.410;2.194;2023-03-03T04:52:44;101577.69;;;11.29;38.46
49397;BME280;35615;41.410;2.194;2023-03-03T04:55:12;101584.56;;;11.29;38.34
49397;BME280;35615;41.410;2.194;2023-03-03T04:57:44;101577.63;;;11.28;38.54
49397;BME280;35615;41.410;2.194;2023-03-03T05:00:14;101575.22;;;11.31;38.51
49397;BME280;35615;41.410;2.194;2023-03-03T05:02:46;101578.84;;;11.34;38.21
49397;BME280;35615;41.410;2.194;2023-03-03T05:05:16;101572.69;;;11.32;38.14
49397;BME280;35615;41.410;2.194;2023-03-03T05:07:44;101576.81;;;11.29;38.67
49397;BME280;35615;41.410;2.194;2023-03-03T05:10:13;101573.34;;;11.28;38.35
49397;BME280;35615;41.410;2.194;2023-03-03T05:12:41;101573.28;;;11.27;38.43
49397;BME280;35615;41.410;2.194;2023-03-03T05:15:08;101570.03;;;11.31;38.67
49397;BME280;35615;41.410;2.194;2023-03-03T05:17:36;101572.47;;;11.28;38.63
49397;BME280;35615;41.410;2.194;2023-03-03T05:20:04;101570.69;;;11.27;38.57
49397;BME280;35615;41.410;2.194;2023-03-03T05:22:31;101578.69;;;11.31;38.60
49397;BME280;35615;41.410;2.194;2023-03-03T05:24:58;101573.41;;;11.30;38.79
49397;BME280;35615;41.410;2.194;2023-03-03T05:27:26;101586.28;;;11.28;38.86
49397;BME280;35615;41.410;2.194;2023-03-03T05:29:53;101584.50;;;11.27;38.82
49397;BME280;35615;41.410;2.194;2023-03-03T05:32:20;101591.53;;;11.30;38.79
49397;BME280;35615;41.410;2.194;2023-03-03T05:34:48;101593.97;;;11.27;39.06
49397;BME280;35615;41.410;2.194;2023-03-03T05:37:21;101599.88;;;11.24;38.49
49397;BME280;35615;41.410;2.194;2023-03-03T05:39:50;101591.16;;;11.22;38.80
49397;BME280;35615;41.410;2.194;2023-03-03T05:42:17;101597.88;;;11.01;39.51
49397;BME280;35615;41.410;2.194;2023-03-03T05:44:45;101597.72;;;10.98;39.02
49397;BME280;35615;41.410;2.194;2023-03-03T05:47:12;101603.94;;;11.01;38.89
49397;BME280;35615;41.410;2.194;2023-03-03T05:49:40;101599.19;;;10.93;39.02
49397;BME280;35615;41.410;2.194;2023-03-03T05:52:07;101597.78;;;10.99;38.82
49397;BME280;35615;41.410;2.194;2023-03-03T05:54:35;101609.03;;;11.00;38.74
49397;BME280;35615;41.410;2.194;2023-03-03T05:57:02;101606.44;;;11.00;38.85
49397;BME280;35615;41.410;2.194;2023-03-03T05:59:29;101608.28;;;11.02;39.43
49397;BME280;35615;41.410;2.194;2023-03-03T06:01:57;101612.78;;;11.06;38.74
49397;BME280;35615;41.410;2.194;2023-03-03T06:04:24;101607.06;;;10.96;39.28
49397;BME280;35615;41.410;2.194;2023-03-03T06:06:54;101611.16;;;10.91;38.65
49397;BME280;35615;41.410;2.194;2023-03-03T06:09:22;101613.31;;;10.99;39.24
49397;BME280;35615;41.410;2.194;2023-03-03T06:11:49;101611.38;;;10.95;38.58
49397;BME280;35615;41.410;2.194;2023-03-03T06:14:21;101609.78;;;10.97;38.77
49397;BME280;35615;41.410;2.194;2023-03-03T06:16:53;101609.97;;;11.02;38.65
49397;BME280;35615;41.410;2.194;2023-03-03T06:19:26;101609.97;;;11.02;38.89
49397;BME280;35615;41.410;2.194;2023-03-03T06:21:56;101603.53;;;10.94;38.78
49397;BME280;35615;41.410;2.194;2023-03-03T06:24:26;101612.78;;;10.89;38.86
49397;BME280;35615;41.410;2.194;2023-03-03T06:26:56;101617.13;;;10.90;39.69
49397;BME280;35615;41.410;2.194;2023-03-03T06:29:25;101621.09;;;10.83;39.52
49397;BME280;35615;41.410;2.194;2023-03-03T06:31:52;101624.53;;;11.00;39.32
49397;BME280;35615;41.410;2.194;2023-03-03T06:34:23;101623.13;;;11.06;39.25
49397;BME280;35615;41.410;2.194;2023-03-03T06:36:53;101624.91;;;11.07;39.24
49397;BME280;35615;41.410;2.194;2023-03-03T06:39:21;101618.13;;;11.10;39.42
49397;BME280;35615;41.410;2.194;2023-03-03T06:41:48;101622.84;;;11.18;40.05
49397;BME280;35615;41.410;2.194;2023-03-03T06:44:22;101626.59;;;11.07;39.52
49397;BME280;35615;41.410;2.194;2023-03-03T06:46:58;101624.47;;;11.16;39.32
49397;BME280;35615;41.410;2.194;2023-03-03T06:49:40;101625.56;;;11.03;39.78
49397;BME280;35615;41.410;2.194;2023-03-03T06:52:23;101631.59;;;11.20;38.81
49397;BME280;35615;41.410;2.194;2023-03-03T06:55:00;101636.84;;;11.22;39.12
49397;BME280;35615;41.410;2.194;2023-03-03T06:57:42;101639.28;;;11.37;38.77
49397;BME280;35615;41.410;2.194;2023-03-03T07:00:35;101646.03;;;11.33;39.07
49397;BME280;35615;41.410;2.194;2023-03-03T07:03:34;101643.88;;;11.42;39.03
49397;BME280;35615;41.410;2.194;2023-03-03T07:12:15;101650.97;;;11.46;38.51
49397;BME280;35615;41.410;2.194;2023-03-03T07:14:53;101653.31;;;11.42;38.61
49397;BME280;35615;41.410;2.194;2023-03-03T07:17:43;101659.75;;;11.50;38.79
49397;BME280;35615;41.410;2.194;2023-03-03T07:23:46;101670.44;;;11.56;38.07
49397;BME280;35615;41.410;2.194;2023-03-03T07:26:20;101663.69;;;11.59;38.04
49397;BME280;35615;41.410;2.194;2023-03-03T07:29:28;101667.31;;;11.63;38.19
49397;BME280;35615;41.410;2.194;2023-03-03T07:32:20;101675.75;;;11.59;38.37
49397;BME280;35615;41.410;2.194;2023-03-03T07:35:34;101676.91;;;11.48;38.72
49397;BME280;35615;41.410;2.194;2023-03-03T07:41:35;101683.06;;;11.50;38.25
49397;BME280;35615;41.410;2.194;2023-03-03T07:44:05;101683.28;;;11.54;38.14
49397;BME280;35615;41.410;2.194;2023-03-03T07:46:49;101689.50;;;11.58;38.28
49397;BME280;35615;41.410;2.194;2023-03-03T07:49:36;101696.06;;;11.51;38.32
49397;BME280;35615;41.410;2.194;2023-03-03T07:52:27;101695.84;;;11.47;38.15
49397;BME280;35615;41.410;2.194;2023-03-03T07:55:22;101698.66;;;11.51;38.91
49397;BME280;35615;41.410;2.194;2023-03-03T07:58:22;101696.16;;;11.53;38.52
49397;BME280;35615;41.410;2.194;2023-03-03T08:04:18;101706.34;;;11.50;38.85
49397;BME280;35615;41.410;2.194;2023-03-03T08:07:20;101705.91;;;11.58;38.54
49397;BME280;35615;41.410;2.194;2023-03-03T08:10:40;101705.16;;;11.61;38.63
49397;BME280;35615;41.410;2.194;2023-03-03T08:13:19;101701.19;;;11.68;38.08
49397;BME280;35615;41.410;2.194;2023-03-03T08:19:04;101707.19;;;11.84;38.42
49397;BME280;35615;41.410;2.194;2023-03-03T08:22:02;101710.63;;;12.01;37.96
49397;BME280;35615;41.410;2.194;2023-03-03T08:24:50;101707.78;;;12.14;38.40
49397;BME280;35615;41.410;2.194;2023-03-03T08:27:22;101705.50;;;12.40;37.78
49397;BME280;35615;41.410;2.194;2023-03-03T08:30:09;101703.41;;;12.70;37.16
49397;BME280;35615;41.410;2.194;2023-03-03T08:32:55;101717.31;;;13.11;36.27
49397;BME280;35615;41.410;2.194;2023-03-03T08:35:42;101710.25;;;13.47;35.60
49397;BME280;35615;41.410;2.194;2023-03-03T08:38:21;101707.84;;;13.94;34.81
49397;BME280;35615;41.410;2.194;2023-03-03T08:41:15;101711.28;;;14.38;34.26
49397;BME280;35615;41.410;2.194;2023-03-03T08:43:54;101711.69;;;14.71;33.75
49397;BME280;35615;41.410;2.194;2023-03-03T08:46:46;101715.44;;;15.03;33.47
49397;BME280;35615;41.410;2.194;2023-03-03T08:49:30;101714.94;;;15.39;33.12
49397;BME280;35615;41.410;2.194;2023-03-03T08:52:15;101714.31;;;15.72;32.24
49397;BME280;35615;41.410;2.194;2023-03-03T08:55:00;101710.94;;;16.01;31.39
49397;BME280;35615;41.410;2.194;2023-03-03T08:57:44;101704.28;;;16.39;30.72
49397;BME280;35615;41.410;2.194;2023-03-03T09:00:23;101707.69;;;16.67;30.95
49397;BME280;35615;41.410;2.194;2023-03-03T09:03:02;101709.34;;;16.93;30.33
49397;BME280;35615;41.410;2.194;2023-03-03T09:05:52;101705.56;;;17.15;29.69
49397;BME280;35615;41.410;2.194;2023-03-03T09:08:25;101712.41;;;17.43;29.75
49397;BME280;35615;41.410;2.194;2023-03-03T09:10:55;101706.84;;;17.64;29.65
49397;BME280;35615;41.410;2.194;2023-03-03T09:13:33;101710.97;;;17.90;29.10
49397;BME280;35615;41.410;2.194;2023-03-03T09:16:10;101714.78;;;18.05;28.30
49397;BME280;35615;41.410;2.194;2023-03-03T09:18:48;101703.72;;;18.16;28.26
49397;BME280;35615;41.410;2.194;2023-03-03T09:21:28;101710.16;;;18.31;27.63
49397;BME280;35615;41.410;2.194;2023-03-03T09:24:16;101711.00;;;18.29;27.20
49397;BME280;35615;41.410;2.194;2023-03-03T09:26:57;101703.66;;;18.52;27.72
49397;BME280;35615;41.410;2.194;2023-03-03T09:29:36;101708.66;;;18.84;27.01
49397;BME280;35615;41.410;2.194;2023-03-03T09:32:39;101708.34;;;19.12;26.57
49397;BME280;35615;41.410;2.194;2023-03-03T09:35:39;101709.53;;;19.30;26.15
49397;BME280;35615;41.410;2.194;2023-03-03T09:38:29;101704.72;;;19.54;25.81
49397;BME280;35615;41.410;2.194;2023-03-03T09:41:15;101706.03;;;19.81;25.82
49397;BME280;35615;41.410;2.194;2023-03-03T09:49:33;101703.31;;;20.32;24.75
49397;BME280;35615;41.410;2.194;2023-03-03T09:52:32;101699.22;;;20.51;24.23
49397;BME280;35615;41.410;2.194;2023-03-03T09:58:35;101701.47;;;20.96;23.29
49397;BME280;35615;41.410;2.194;2023-03-03T10:01:32;101697.16;;;21.04;23.39
49397;BME280;35615;41.410;2.194;2023-03-03T10:12:40;101695.03;;;21.52;23.14
49397;BME280;35615;41.410;2.194;2023-03-03T10:18:00;101697.03;;;21.86;22.43
49397;BME280;35615;41.410;2.194;2023-03-03T10:23:29;101696.47;;;22.38;22.48
49397;BME280;35615;41.410;2.194;2023-03-03T10:26:13;101692.97;;;22.39;21.79
49397;BME280;35615;41.410;2.194;2023-03-03T10:31:26;101691.44;;;22.88;21.29
49397;BME280;35615;41.410;2.194;2023-03-03T10:59:02;101693.22;;;23.01;20.11
49397;BME280;35615;41.410;2.194;2023-03-03T11:01:57;101690.63;;;23.36;19.77
49397;BME280;35615;41.410;2.194;2023-03-03T11:07:55;101698.53;;;23.24;20.63
49397;BME280;35615;41.410;2.194;2023-03-03T11:10:47;101695.00;;;23.11;20.97
49397;BME280;35615;41.410;2.194;2023-03-03T11:22:28;101688.75;;;22.76;21.21
49397;BME280;35615;41.410;2.194;2023-03-03T11:37:06;101691.38;;;22.76;21.45
49397;BME280;35615;41.410;2.194;2023-03-03T11:39:41;101687.09;;;23.08;21.77
49397;BME280;35615;41.410;2.194;2023-03-03T11:42:31;101683.59;;;23.23;21.15
49397;BME280;35615;41.410;2.194;2023-03-03T11:45:19;101687.13;;;23.28;21.14
49397;BME280;35615;41.410;2.194;2023-03-03T11:56:33;101677.25;;;22.60;21.64
49397;BME280;35615;41.410;2.194;2023-03-03T12:02:53;101670.41;;;23.34;21.54
49397;BME280;35615;41.410;2.194;2023-03-03T12:12:12;101663.41;;;23.59;20.91
49397;BME280;35615;41.410;2.194;2023-03-03T12:14:51;101654.59;;;23.41;21.18
49397;BME280;35615;41.410;2.194;2023-03-03T12:26:01;101659.88;;;23.20;21.76
49397;BME280;35615;41.410;2.194;2023-03-03T12:28:52;101670.69;;;21.79;23.47
49397;BME280;35615;41.410;2.194;2023-03-03T12:35:02;101667.75;;;21.39;23.51
49397;BME280;35615;41.410;2.194;2023-03-03T12:40:35;101658.84;;;22.71;22.62
49397;BME280;35615;41.410;2.194;2023-03-03T12:43:34;101657.19;;;21.33;24.62
49397;BME280;35615;41.410;2.194;2023-03-03T12:48:46;101662.28;;;21.19;24.55
49397;BME280;35615;41.410;2.194;2023-03-03T12:51:40;101645.31;;;21.85;24.71
49397;BME280;35615;41.410;2.194;2023-03-03T12:54:33;101643.81;;;22.35;22.83
49397;BME280;35615;41.410;2.194;2023-03-03T13:11:39;101625.59;;;23.11;21.32
49397;BME280;35615;41.410;2.194;2023-03-03T13:14:31;101632.16;;;21.85;22.77
49397;BME280;35615;41.410;2.194;2023-03-03T13:20:33;101621.03;;;22.41;21.97
49397;BME280;35615;41.410;2.194;2023-03-03T13:24:03;101618.19;;;21.98;23.66
49397;BME280;35615;41.410;2.194;2023-03-03T13:28:59;101618.19;;;22.01;23.77
49397;BME280;35615;41.410;2.194;2023-03-03T13:31:38;101623.38;;;21.86;23.86
49397;BME280;35615;41.410;2.194;2023-03-03T13:37:20;101610.38;;;22.12;24.18
49397;BME280;35615;41.410;2.194;2023-03-03T13:39:58;101613.97;;;22.36;23.56
49397;BME280;35615;41.410;2.194;2023-03-03T13:42:39;101611.41;;;22.54;23.65
49397;BME280;35615;41.410;2.194;2023-03-03T13:45:21;101613.06;;;22.18;23.39
49397;BME280;35615;41.410;2.194;2023-03-03T13:50:36;101602.53;;;22.20;24.55
49397;BME280;35615;41.410;2.194;2023-03-03T13:53:42;101599.75;;;21.97;24.60
49397;BME280;35615;41.410;2.194;2023-03-03T14:02:37;101598.22;;;21.05;26.31
49397;BME280;35615;41.410;2.194;2023-03-03T14:08:06;101597.50;;;20.38;27.25
49397;BME280;35615;41.410;2.194;2023-03-03T14:11:09;101592.66;;;20.73;26.74
49397;BME280;35615;41.410;2.194;2023-03-03T14:20:54;101598.38;;;20.38;27.37
49397;BME280;35615;41.410;2.194;2023-03-03T14:26:09;101595.72;;;19.67;28.86
49397;BME280;35615;41.410;2.194;2023-03-03T14:45:38;101596.59;;;19.13;30.02
49397;BME280;35615;41.410;2.194;2023-03-03T14:48:24;101601.25;;;19.31;29.84
49397;BME280;35615;41.410;2.194;2023-03-03T14:53:46;101598.13;;;19.00;30.05
49397;BME280;35615;41.410;2.194;2023-03-03T14:59:40;101598.88;;;18.48;30.67
49397;BME280;35615;41.410;2.194;2023-03-03T15:01:42;101605.59;;;18.34;31.17
49397;BME280;35615;41.410;2.194;2023-03-03T15:04:23;101602.94;;;18.32;31.64
49397;BME280;35615;41.410;2.194;2023-03-03T15:06:53;101594.44;;;18.44;31.39
49397;BME280;35615;41.410;2.194;2023-03-03T15:09:36;101589.19;;;18.42;31.62
49397;BME280;35615;41.410;2.194;2023-03-03T15:12:41;101592.81;;;18.50;31.71
49397;BME280;35615;41.410;2.194;2023-03-03T15:17:39;101585.94;;;18.54;31.29
49397;BME280;35615;41.410;2.194;2023-03-03T15:20:31;101593.00;;;18.61;31.33
49397;BME280;35615;41.410;2.194;2023-03-03T15:23:27;101592.97;;;18.58;31.81
49397;BME280;35615;41.410;2.194;2023-03-03T15:31:47;101598.47;;;17.13;33.50
49397;BME280;35615;41.410;2.194;2023-03-03T15:37:37;101599.84;;;17.70;33.75
49397;BME280;35615;41.410;2.194;2023-03-03T15:43:19;101593.13;;;17.81;34.64
49397;BME280;35615;41.410;2.194;2023-03-03T15:46:01;101604.66;;;17.52;35.46
49397;BME280;35615;41.410;2.194;2023-03-03T15:51:46;101598.84;;;17.29;36.42
49397;BME280;35615;41.410;2.194;2023-03-03T15:54:49;101601.31;;;17.59;36.38
49397;BME280;35615;41.410;2.194;2023-03-03T16:03:00;101593.75;;;17.33;37.52
49397;BME280;35615;41.410;2.194;2023-03-03T16:08:18;101606.00;;;17.36;36.98
49397;BME280;35615;41.410;2.194;2023-03-03T16:16:19;101602.91;;;17.18;37.21
49397;BME280;35615;41.410;2.194;2023-03-03T16:21:52;101608.56;;;16.67;38.24
49397;BME280;35615;41.410;2.194;2023-03-03T16:24:31;101608.13;;;17.16;37.17
49397;BME280;35615;41.410;2.194;2023-03-03T16:27:34;101604.22;;;16.99;37.79
49397;BME280;35615;41.410;2.194;2023-03-03T16:32:44;101607.09;;;16.76;37.72
49397;BME280;35615;41.410;2.194;2023-03-03T16:35:30;101613.59;;;16.92;37.47
49397;BME280;35615;41.410;2.194;2023-03-03T16:38:05;101606.31;;;16.79;37.89
49397;BME280;35615;41.410;2.194;2023-03-03T16:46:44;101617.44;;;17.06;37.73
49397;BME280;35615;41.410;2.194;2023-03-03T16:52:13;101619.28;;;16.76;38.08
49397;BME280;35615;41.410;2.194;2023-03-03T16:58:03;101634.75;;;17.03;37.15
49397;BME280;35615;41.410;2.194;2023-03-03T17:00:51;101636.72;;;17.11;37.34
49397;BME280;35615;41.410;2.194;2023-03-03T17:03:29;101641.00;;;17.08;36.65
49397;BME280;35615;41.410;2.194;2023-03-03T17:11:43;101647.38;;;16.86;35.64
49397;BME280;35615;41.410;2.194;2023-03-03T17:14:40;101652.88;;;16.65;35.55
49397;BME280;35615;41.410;2.194;2023-03-03T17:20:50;101650.69;;;16.80;35.57
49397;BME280;35615;41.410;2.194;2023-03-03T17:26:34;101663.13;;;16.59;35.08
49397;BME280;35615;41.410;2.194;2023-03-03T17:32:03;101666.00;;;17.00;35.09
49397;BME280;35615;41.410;2.194;2023-03-03T17:37:52;101680.84;;;17.01;34.96
49397;BME280;35615;41.410;2.194;2023-03-03T17:43:43;101686.53;;;16.86;35.24
49397;BME280;35615;41.410;2.194;2023-03-03T17:46:35;101686.00;;;16.68;35.48
49397;BME280;35615;41.410;2.194;2023-03-03T17:52:30;101699.41;;;16.80;35.29
49397;BME280;35615;41.410;2.194;2023-03-03T17:55:00;101701.75;;;16.71;35.18
49397;BME280;35615;41.410;2.194;2023-03-03T18:01:24;101703.66;;;16.76;35.58
49397;BME280;35615;41.410;2.194;2023-03-03T18:04:14;101707.78;;;16.68;35.57
49397;BME280;35615;41.410;2.194;2023-03-03T18:22:33;101736.91;;;16.83;36.11
49397;BME280;35615;41.410;2.194;2023-03-03T18:25:51;101739.50;;;16.83;36.30
49397;BME280;35615;41.410;2.194;2023-03-03T18:29:16;101742.25;;;16.88;36.49
49397;BME280;35615;41.410;2.194;2023-03-03T18:37:38;101757.16;;;16.92;36.56
49397;BME280;35615;41.410;2.194;2023-03-03T18:40:38;101754.63;;;16.95;36.65
49397;BME280;35615;41.410;2.194;2023-03-03T18:43:54;101758.78;;;16.87;37.06
49397;BME280;35615;41.410;2.194;2023-03-03T18:46:51;101763.25;;;16.93;36.96
49397;BME280;35615;41.410;2.194;2023-03-03T18:50:07;101769.31;;;16.92;37.15
49397;BME280;35615;41.410;2.194;2023-03-03T18:53:29;101778.00;;;16.91;37.16
49397;BME280;35615;41.410;2.194;2023-03-03T19:05:45;101790.25;;;16.65;38.46
49397;BME280;35615;41.410;2.194;2023-03-03T19:08:28;101785.19;;;16.69;38.67
49397;BME280;35615;41.410;2.194;2023-03-03T19:11:42;101787.06;;;16.73;39.01